Portada
METAR-TAF:

METAR-TAF

Aeropuertos :

Nordholz, Alemania

latitud: 53-46N, longitud: 008-40E, altitud: 23 m

Observación

El informe se hizo hace 26 minutos, a las 23:20 UTC
Viento 7 kt del oeste-suroeste
Temperatura 2°C
Humedad 80%
Presión 1025 hPa
Visibilidad 10 km o más

METAR: ETMN 312320Z AUTO 25007KT 9999 // ////// 02/M01 Q1025 ///

Hora: 01:46 (23:46 UTC)

Pronóstico

El informe se hizo hace 6 horas y 21 minutos, a las 17:25 UTC
Pronóstico válido del 31 a las 17 UTC al 01 a las 02 UTC
Viento 10 kt del oeste-noroeste
Visibilidad 10 km o más
Escasas nubes a una altura de 5000 ft
Evolucionando progresivamente
del 31 a las 22 UTC al 31 a las 24 UTC
Viento 8 kt del oeste
Visibilidad: 1750 m
Nubes dispersas a una altura de 2000 ft
Cielo nuboso a una altura de 3000 ft

TAF: ETMN 311725Z 3117/0102 29010KT 9999 NSW FEW050 BECMG 3122/3124 26008KT 9999 NSW SCT020 BKN030 CANCEL 1750

Observaciones y pronósticos meteorológicos de más de 4000 aeropuertos (mensajes METAR y TAF).

Los puntos amarillos y rojos representan las estaciones disponibles.

Ponga el ratón en el punto deseado para ver el nombre de la estación.

Haga clic para ver las observaciones y los pronósticos meteorológicos.

Para cambiar el mapa : haga clic en los botones verdes con una cruz de color negro para hacer un zoom, en el botón verde con un guión para alejar o en las flechas verdes para mapas adyacentes.


METAR-TAF: